createdAt,value
2019-03-25T00:02:08.501Z,68.50
2019-03-25T00:07:14.753Z,68.60
2019-03-25T00:12:21.006Z,69.00
2019-03-25T00:17:27.293Z,69.20
2019-03-25T00:22:33.593Z,69.20
2019-03-25T00:27:39.947Z,69.30
2019-03-25T00:32:46.152Z,68.70
2019-03-25T00:37:52.399Z,68.80
2019-03-25T00:42:58.926Z,68.20
2019-03-25T00:48:05.198Z,68.20
2019-03-25T00:53:11.428Z,68.10
2019-03-25T00:58:17.719Z,67.80
2019-03-25T01:03:23.974Z,68.20
2019-03-25T01:08:30.370Z,68.10
2019-03-25T01:13:36.616Z,68.50
2019-03-25T01:18:42.888Z,68.60
2019-03-25T01:23:49.232Z,68.70
2019-03-25T01:28:55.536Z,69.20
2019-03-25T01:34:01.808Z,69.60
2019-03-25T01:39:08.913Z,69.90
2019-03-25T01:44:15.140Z,70.20
2019-03-25T01:49:21.406Z,70.20
2019-03-25T01:54:27.627Z,69.90
2019-03-25T01:59:33.863Z,70.00
2019-03-25T02:04:40.139Z,69.60
2019-03-25T02:09:46.374Z,70.00
2019-03-25T02:14:52.617Z,70.00
2019-03-25T02:19:58.924Z,70.20
2019-03-25T02:25:05.498Z,69.90
2019-03-25T02:30:11.789Z,69.70
2019-03-25T02:35:18.031Z,69.20
2019-03-25T02:40:24.314Z,68.80
2019-03-25T02:45:30.556Z,68.30
2019-03-25T02:50:36.959Z,68.00
2019-03-25T02:55:43.333Z,67.70
2019-03-25T03:00:49.592Z,67.40
2019-03-25T03:05:55.908Z,67.30
2019-03-25T03:11:02.151Z,67.10
2019-03-25T03:16:08.404Z,66.90
2019-03-25T03:21:14.644Z,66.70
2019-03-25T03:26:20.917Z,66.50
2019-03-25T03:31:27.202Z,66.70
2019-03-25T03:36:33.443Z,66.60
2019-03-25T03:41:39.725Z,66.80
2019-03-25T03:46:46.146Z,66.80
2019-03-25T03:51:52.472Z,67.20
2019-03-25T03:56:58.757Z,66.90
2019-03-25T04:02:05.090Z,67.50
2019-03-25T04:07:11.322Z,67.60
2019-03-25T04:12:17.555Z,67.80
2019-03-25T04:17:23.877Z,67.90
2019-03-25T04:22:30.163Z,68.10
2019-03-25T04:27:36.436Z,68.70
2019-03-25T04:32:42.710Z,68.90
2019-03-25T04:37:49.057Z,68.90
2019-03-25T04:42:55.378Z,68.90
2019-03-25T04:48:01.739Z,69.10
2019-03-25T04:53:07.989Z,69.40
2019-03-25T04:58:14.194Z,69.40
2019-03-25T05:03:20.485Z,69.70
2019-03-25T05:08:26.710Z,70.00
2019-03-25T05:13:32.950Z,70.60
2019-03-25T05:18:39.196Z,71.20
2019-03-25T05:23:45.495Z,71.90
2019-03-25T05:28:51.734Z,72.60
2019-03-25T05:33:57.977Z,73.40
2019-03-25T05:39:05.300Z,74.20
2019-03-25T05:44:11.637Z,74.20
2019-03-25T05:49:17.836Z,74.70
2019-03-25T05:54:24.198Z,75.50
2019-03-25T05:59:30.453Z,76.00
2019-03-25T06:04:36.704Z,76.00
2019-03-25T06:09:42.955Z,76.20
2019-03-25T06:14:49.207Z,76.30
2019-03-25T06:19:55.426Z,76.20
2019-03-25T06:25:01.631Z,76.30
2019-03-25T06:30:08.397Z,76.30
2019-03-25T06:35:14.646Z,76.10
2019-03-25T06:40:20.943Z,75.40
2019-03-25T06:45:27.289Z,75.40
2019-03-25T06:50:33.618Z,73.70
2019-03-25T06:55:39.893Z,67.80
2019-03-25T07:00:46.338Z,60.70
2019-03-25T07:05:52.661Z,59.10
2019-03-25T07:10:58.950Z,58.20
2019-03-25T07:16:05.318Z,59.20
2019-03-25T07:21:11.579Z,57.00
2019-03-25T07:26:17.882Z,51.20
2019-03-25T07:31:24.149Z,47.80
2019-03-25T07:36:30.456Z,44.30
2019-03-25T07:41:36.847Z,44.20
2019-03-25T07:46:43.099Z,45.60
2019-03-25T07:51:49.457Z,48.20
2019-03-25T07:56:55.847Z,50.70
2019-03-25T08:02:02.180Z,52.70
2019-03-25T08:07:08.536Z,54.50
2019-03-25T08:12:14.963Z,55.70
2019-03-25T08:17:21.336Z,56.70
2019-03-25T08:22:27.592Z,57.30
2019-03-25T08:27:33.909Z,57.40
2019-03-25T08:32:40.211Z,56.00
2019-03-25T08:37:46.486Z,48.20
2019-03-25T08:42:52.795Z,42.50
2019-03-25T08:47:59.065Z,37.70
2019-03-25T08:53:05.340Z,34.30
2019-03-25T08:58:12.541Z,34.20
2019-03-25T09:03:18.975Z,35.20
2019-03-25T09:08:25.312Z,38.70
2019-03-25T09:13:31.587Z,42.20
2019-03-25T09:18:37.878Z,44.90
2019-03-25T09:23:44.112Z,47.40
2019-03-25T09:28:50.360Z,49.30
2019-03-25T09:33:56.707Z,50.20
2019-03-25T09:39:04.715Z,47.60
2019-03-25T09:44:10.998Z,47.00
2019-03-25T09:49:17.281Z,44.20
2019-03-25T09:54:25.421Z,42.50
2019-03-25T09:59:31.777Z,40.50
2019-03-25T10:04:38.050Z,41.10
2019-03-25T10:09:44.302Z,42.70
2019-03-25T10:14:50.623Z,43.30
2019-03-25T10:19:56.849Z,43.80
2019-03-25T10:25:03.163Z,43.80
2019-03-25T10:30:10.199Z,44.00
2019-03-25T10:35:16.535Z,44.30
2019-03-25T10:40:22.794Z,46.30
2019-03-25T10:45:29.031Z,49.00
2019-03-25T10:50:35.271Z,49.50
2019-03-25T10:55:41.551Z,49.00
2019-03-25T11:00:47.929Z,50.20
2019-03-25T11:05:54.239Z,52.10
2019-03-25T11:11:00.601Z,53.60
2019-03-25T11:16:06.845Z,54.10
2019-03-25T11:21:13.143Z,55.00
2019-03-25T11:26:19.432Z,55.80
2019-03-25T11:31:25.744Z,55.60
2019-03-25T11:36:32.027Z,54.70
2019-03-25T11:41:38.305Z,54.80
2019-03-25T11:46:44.564Z,54.70
2019-03-25T11:51:50.887Z,54.50
2019-03-25T11:56:57.155Z,53.60
2019-03-25T12:02:03.557Z,53.20
2019-03-25T12:07:09.932Z,54.20
2019-03-25T12:12:16.228Z,54.60
2019-03-25T12:17:22.456Z,54.70
2019-03-25T12:22:28.721Z,53.90
2019-03-25T12:27:34.960Z,53.60
2019-03-25T12:32:41.272Z,53.10
2019-03-25T12:37:47.603Z,52.50
2019-03-25T12:42:53.944Z,51.40
2019-03-25T12:48:00.152Z,50.80
2019-03-25T12:53:06.582Z,50.40
2019-03-25T12:58:12.825Z,49.90
2019-03-25T13:03:19.070Z,49.70
2019-03-25T13:08:33.098Z,49.90
2019-03-25T13:13:33.413Z,54.00
2019-03-25T13:18:39.765Z,55.60
2019-03-25T13:23:46.023Z,56.90
2019-03-25T13:29:01.560Z,57.70
2019-03-25T13:34:00.271Z,57.90
2019-03-25T13:39:08.021Z,57.80
2019-03-25T13:44:14.288Z,58.30
2019-03-25T13:49:20.585Z,58.10
2019-03-25T13:54:26.928Z,57.70
2019-03-25T13:59:33.160Z,57.10
2019-03-25T14:04:39.659Z,56.10
2019-03-25T14:09:45.990Z,55.20
2019-03-25T14:14:52.443Z,54.80
2019-03-25T14:19:59.275Z,54.70
2019-03-25T14:25:05.886Z,55.30
2019-03-25T14:30:14.728Z,55.70
2019-03-25T14:35:20.244Z,56.20
2019-03-25T14:40:26.527Z,57.20
2019-03-25T14:45:33.138Z,57.80
2019-03-25T14:50:39.402Z,57.40
2019-03-25T14:55:45.880Z,57.00
2019-03-25T15:00:52.247Z,57.20
2019-03-25T15:05:58.643Z,58.60
2019-03-25T15:11:05.054Z,60.00
2019-03-25T15:16:11.387Z,61.90
2019-03-25T15:21:17.664Z,64.40
2019-03-25T15:26:24.567Z,65.50
2019-03-25T15:31:30.922Z,65.90
2019-03-25T15:36:38.040Z,65.80
2019-03-25T15:41:44.294Z,65.10
2019-03-25T15:46:55.755Z,64.10
2019-03-25T15:51:58.689Z,63.30
2019-03-25T15:57:05.110Z,62.40
2019-03-25T16:02:11.366Z,61.50
2019-03-25T16:07:17.613Z,61.40
2019-03-25T16:12:24.003Z,60.30
2019-03-25T16:17:30.413Z,59.00
2019-03-25T16:22:37.025Z,58.70
2019-03-25T16:27:43.355Z,58.70
2019-03-25T16:32:49.584Z,59.20
2019-03-25T16:37:55.864Z,60.20
2019-03-25T16:43:02.296Z,60.00
2019-03-25T16:48:08.920Z,60.30
2019-03-25T16:53:15.314Z,61.70
2019-03-25T16:58:21.539Z,63.00
2019-03-25T17:03:27.777Z,63.70
2019-03-25T17:08:34.051Z,63.90
2019-03-25T17:13:40.344Z,63.60
2019-03-25T17:18:46.779Z,63.50
2019-03-25T17:23:53.068Z,63.40
2019-03-25T17:28:59.379Z,63.50
2019-03-25T17:34:05.628Z,63.50
2019-03-25T17:39:12.067Z,63.60
2019-03-25T17:44:18.318Z,63.70
2019-03-25T17:49:24.586Z,63.80
2019-03-25T17:54:30.815Z,63.40
2019-03-25T17:59:37.083Z,63.30
2019-03-25T18:04:43.372Z,63.10
2019-03-25T18:09:49.700Z,63.00
2019-03-25T18:14:56.360Z,63.10
2019-03-25T18:20:02.671Z,62.80
2019-03-25T18:25:09.354Z,62.60
2019-03-25T18:30:15.935Z,62.10
2019-03-25T18:35:26.210Z,61.70
2019-03-25T18:40:32.468Z,61.50
2019-03-25T18:45:38.741Z,61.90
2019-03-25T18:50:45.218Z,62.10
2019-03-25T18:55:51.601Z,62.40
2019-03-25T19:00:57.994Z,62.80
2019-03-25T19:06:04.418Z,63.00
2019-03-25T19:11:10.806Z,62.90
2019-03-25T19:16:17.059Z,63.20
2019-03-25T19:21:23.435Z,63.10
2019-03-25T19:26:29.754Z,63.00
2019-03-25T19:31:36.042Z,62.80
2019-03-25T19:36:42.381Z,62.90
2019-03-25T19:41:48.707Z,62.80
2019-03-25T19:46:55.014Z,63.00
2019-03-25T19:52:01.283Z,63.00
2019-03-25T19:57:07.711Z,63.00
2019-03-25T20:02:18.956Z,63.10
2019-03-25T20:07:21.958Z,63.10
2019-03-25T20:12:28.306Z,63.10
2019-03-25T20:17:34.660Z,63.10
2019-03-25T20:22:40.995Z,63.20
2019-03-25T20:27:49.506Z,63.30
2019-03-25T20:32:57.715Z,63.40
2019-03-25T20:38:06.753Z,63.40
2019-03-25T20:43:14.546Z,63.60
2019-03-25T20:48:20.836Z,63.80
2019-03-25T20:53:27.077Z,64.00
2019-03-25T20:58:33.386Z,64.40
2019-03-25T21:03:39.943Z,64.70
2019-03-25T21:08:46.374Z,64.90
2019-03-25T21:13:52.609Z,65.30
2019-03-25T21:18:58.988Z,65.50
2019-03-25T21:24:06.933Z,65.50
2019-03-25T21:29:14.209Z,65.60
2019-03-25T21:34:21.560Z,65.70
2019-03-25T21:39:27.925Z,65.90
2019-03-25T21:44:34.179Z,66.10
2019-03-25T21:49:40.524Z,66.40
2019-03-25T21:54:46.882Z,66.70
2019-03-25T21:59:53.275Z,66.80
2019-03-25T22:04:59.668Z,66.90
2019-03-25T22:10:06.039Z,67.00
2019-03-25T22:15:12.815Z,67.00
2019-03-25T22:20:19.071Z,67.10
2019-03-25T22:25:25.397Z,67.20
2019-03-25T22:30:31.641Z,67.20
2019-03-25T22:35:37.955Z,67.50
2019-03-25T22:40:44.222Z,67.60
2019-03-25T22:45:50.510Z,67.70
2019-03-25T22:50:56.911Z,68.10
2019-03-25T22:56:03.235Z,68.10
2019-03-25T23:01:09.605Z,68.30
2019-03-25T23:06:15.919Z,68.40
2019-03-25T23:11:22.195Z,68.50
2019-03-25T23:16:28.467Z,68.50
2019-03-25T23:21:34.779Z,68.80
2019-03-25T23:26:41.032Z,69.00
2019-03-25T23:31:47.307Z,69.10
2019-03-25T23:36:53.555Z,69.30
2019-03-25T23:41:59.802Z,69.40
2019-03-25T23:47:06.057Z,69.30
2019-03-25T23:52:12.299Z,69.40
2019-03-25T23:57:18.547Z,69.50
